sensor_id;sensor_type;location;lat;lon;timestamp;P1;durP1;ratioP1;P2;durP2;ratioP2
4553;SDS011;2289;48.316;15.174;2024-03-23T00:55:56;5.10;;;3.57;;
4553;SDS011;2289;48.316;15.174;2024-03-23T00:58:42;5.40;;;3.97;;
4553;SDS011;2289;48.316;15.174;2024-03-23T01:01:28;4.97;;;4.47;;
4553;SDS011;2289;48.316;15.174;2024-03-23T01:04:13;6.50;;;5.20;;
4553;SDS011;2289;48.316;15.174;2024-03-23T01:06:59;4.33;;;3.57;;
4553;SDS011;2289;48.316;15.174;2024-03-23T01:09:46;4.57;;;4.10;;
4553;SDS011;2289;48.316;15.174;2024-03-23T01:12:31;5.03;;;3.93;;
4553;SDS011;2289;48.316;15.174;2024-03-23T01:15:18;5.70;;;5.10;;
4553;SDS011;2289;48.316;15.174;2024-03-23T01:18:03;5.80;;;4.73;;
4553;SDS011;2289;48.316;15.174;2024-03-23T01:20:49;5.83;;;4.33;;
4553;SDS011;2289;48.316;15.174;2024-03-23T01:23:34;5.20;;;4.40;;
4553;SDS011;2289;48.316;15.174;2024-03-23T01:26:22;7.43;;;4.93;;
4553;SDS011;2289;48.316;15.174;2024-03-23T01:29:07;3.60;;;3.30;;
4553;SDS011;2289;48.316;15.174;2024-03-23T01:31:53;5.70;;;4.03;;
4553;SDS011;2289;48.316;15.174;2024-03-23T01:34:38;3.87;;;3.50;;
4553;SDS011;2289;48.316;15.174;2024-03-23T01:37:24;4.50;;;4.10;;
4553;SDS011;2289;48.316;15.174;2024-03-23T01:40:10;3.97;;;3.50;;
4553;SDS011;2289;48.316;15.174;2024-03-23T01:43:02;5.90;;;4.33;;
4553;SDS011;2289;48.316;15.174;2024-03-23T01:45:49;6.80;;;3.50;;
4553;SDS011;2289;48.316;15.174;2024-03-23T01:48:37;6.90;;;3.80;;
4553;SDS011;2289;48.316;15.174;2024-03-23T01:54:10;4.77;;;4.00;;
4553;SDS011;2289;48.316;15.174;2024-03-23T01:56:57;6.87;;;3.90;;
4553;SDS011;2289;48.316;15.174;2024-03-23T01:59:43;3.83;;;3.50;;
4553;SDS011;2289;48.316;15.174;2024-03-23T02:02:30;5.20;;;3.50;;
4553;SDS011;2289;48.316;15.174;2024-03-23T02:05:15;5.27;;;3.70;;
4553;SDS011;2289;48.316;15.174;2024-03-23T02:08:01;4.73;;;3.70;;
4553;SDS011;2289;48.316;15.174;2024-03-23T02:10:47;5.30;;;3.63;;
4553;SDS011;2289;48.316;15.174;2024-03-23T02:13:34;3.90;;;3.50;;
4553;SDS011;2289;48.316;15.174;2024-03-23T02:16:21;5.77;;;3.83;;
4553;SDS011;2289;48.316;15.174;2024-03-23T02:19:06;5.10;;;3.40;;
4553;SDS011;2289;48.316;15.174;2024-03-23T02:21:52;6.33;;;4.97;;
4553;SDS011;2289;48.316;15.174;2024-03-23T02:24:39;6.13;;;4.17;;
4553;SDS011;2289;48.316;15.174;2024-03-23T02:27:24;6.20;;;3.73;;
4553;SDS011;2289;48.316;15.174;2024-03-23T02:30:10;5.33;;;4.37;;
4553;SDS011;2289;48.316;15.174;2024-03-23T02:32:56;4.87;;;4.03;;
4553;SDS011;2289;48.316;15.174;2024-03-23T02:35:42;9.60;;;4.37;;
4553;SDS011;2289;48.316;15.174;2024-03-23T02:38:28;6.20;;;4.30;;
4553;SDS011;2289;48.316;15.174;2024-03-23T02:41:15;4.10;;;3.57;;
4553;SDS011;2289;48.316;15.174;2024-03-23T02:44:07;5.23;;;4.00;;
4553;SDS011;2289;48.316;15.174;2024-03-23T02:46:56;7.53;;;3.47;;
4553;SDS011;2289;48.316;15.174;2024-03-23T02:49:41;6.80;;;4.00;;
4553;SDS011;2289;48.316;15.174;2024-03-23T02:52:27;8.70;;;3.83;;
4553;SDS011;2289;48.316;15.174;2024-03-23T02:55:12;6.70;;;2.87;;
4553;SDS011;2289;48.316;15.174;2024-03-23T02:57:59;6.07;;;4.10;;
4553;SDS011;2289;48.316;15.174;2024-03-23T03:00:46;6.43;;;3.70;;
4553;SDS011;2289;48.316;15.174;2024-03-23T03:03:31;4.37;;;3.50;;
4553;SDS011;2289;48.316;15.174;2024-03-23T03:06:22;6.50;;;3.70;;
4553;SDS011;2289;48.316;15.174;2024-03-23T03:09:09;5.33;;;4.03;;
4553;SDS011;2289;48.316;15.174;2024-03-23T03:11:57;4.27;;;3.87;;
4553;SDS011;2289;48.316;15.174;2024-03-23T03:14:47;5.87;;;4.30;;
4553;SDS011;2289;48.316;15.174;2024-03-23T03:17:32;4.40;;;4.00;;
4553;SDS011;2289;48.316;15.174;2024-03-23T03:20:18;11.03;;;3.83;;
4553;SDS011;2289;48.316;15.174;2024-03-23T03:23:06;5.73;;;4.27;;
4553;SDS011;2289;48.316;15.174;2024-03-23T03:25:51;7.17;;;3.13;;
4553;SDS011;2289;48.316;15.174;2024-03-23T03:28:37;12.40;;;5.37;;
4553;SDS011;2289;48.316;15.174;2024-03-23T03:31:24;4.67;;;3.33;;
4553;SDS011;2289;48.316;15.174;2024-03-23T03:34:10;6.83;;;3.80;;
4553;SDS011;2289;48.316;15.174;2024-03-23T03:36:55;8.23;;;4.23;;
4553;SDS011;2289;48.316;15.174;2024-03-23T03:39:42;7.50;;;3.60;;
4553;SDS011;2289;48.316;15.174;2024-03-23T03:42:27;3.80;;;3.37;;
4553;SDS011;2289;48.316;15.174;2024-03-23T03:45:13;5.33;;;3.77;;
4553;SDS011;2289;48.316;15.174;2024-03-23T03:47:59;7.50;;;3.87;;
4553;SDS011;2289;48.316;15.174;2024-03-23T03:50:45;5.50;;;2.80;;
4553;SDS011;2289;48.316;15.174;2024-03-23T03:53:30;5.00;;;2.97;;
4553;SDS011;2289;48.316;15.174;2024-03-23T03:56:16;10.63;;;3.10;;
4553;SDS011;2289;48.316;15.174;2024-03-23T03:59:01;4.40;;;2.83;;
4553;SDS011;2289;48.316;15.174;2024-03-23T04:01:47;4.67;;;3.47;;
4553;SDS011;2289;48.316;15.174;2024-03-23T04:04:34;8.83;;;3.20;;
4553;SDS011;2289;48.316;15.174;2024-03-23T04:07:20;4.80;;;3.10;;
4553;SDS011;2289;48.316;15.174;2024-03-23T04:10:07;6.90;;;4.00;;
4553;SDS011;2289;48.316;15.174;2024-03-23T04:12:52;6.50;;;4.27;;
4553;SDS011;2289;48.316;15.174;2024-03-23T04:15:38;4.93;;;4.17;;
4553;SDS011;2289;48.316;15.174;2024-03-23T04:18:23;5.03;;;4.10;;
4553;SDS011;2289;48.316;15.174;2024-03-23T04:21:12;6.27;;;5.37;;
4553;SDS011;2289;48.316;15.174;2024-03-23T04:23:56;3.90;;;3.57;;
4553;SDS011;2289;48.316;15.174;2024-03-23T04:26:42;4.63;;;3.87;;
4553;SDS011;2289;48.316;15.174;2024-03-23T04:29:28;5.53;;;3.73;;
4553;SDS011;2289;48.316;15.174;2024-03-23T04:32:14;6.07;;;3.60;;
4553;SDS011;2289;48.316;15.174;2024-03-23T04:35:00;4.53;;;3.37;;
4553;SDS011;2289;48.316;15.174;2024-03-23T04:37:47;6.87;;;3.60;;
4553;SDS011;2289;48.316;15.174;2024-03-23T04:40:32;5.63;;;4.43;;
4553;SDS011;2289;48.316;15.174;2024-03-23T04:43:19;4.27;;;3.83;;
4553;SDS011;2289;48.316;15.174;2024-03-23T04:46:04;4.77;;;4.27;;
4553;SDS011;2289;48.316;15.174;2024-03-23T04:48:51;5.63;;;4.47;;
4553;SDS011;2289;48.316;15.174;2024-03-23T04:51:37;5.40;;;4.07;;
4553;SDS011;2289;48.316;15.174;2024-03-23T04:54:24;6.97;;;4.40;;
4553;SDS011;2289;48.316;15.174;2024-03-23T04:57:10;4.60;;;4.07;;
4553;SDS011;2289;48.316;15.174;2024-03-23T04:59:56;3.60;;;3.30;;
4553;SDS011;2289;48.316;15.174;2024-03-23T05:02:41;4.20;;;3.83;;
4553;SDS011;2289;48.316;15.174;2024-03-23T05:05:27;3.37;;;3.13;;
4553;SDS011;2289;48.316;15.174;2024-03-23T05:08:12;7.60;;;4.13;;
4553;SDS011;2289;48.316;15.174;2024-03-23T05:10:59;5.00;;;3.40;;
4553;SDS011;2289;48.316;15.174;2024-03-23T05:13:45;4.20;;;3.50;;
4553;SDS011;2289;48.316;15.174;2024-03-23T05:16:30;4.50;;;3.90;;
4553;SDS011;2289;48.316;15.174;2024-03-23T05:19:16;3.83;;;3.50;;
4553;SDS011;2289;48.316;15.174;2024-03-23T05:22:02;5.43;;;4.23;;
4553;SDS011;2289;48.316;15.174;2024-03-23T05:24:46;7.80;;;4.80;;
4553;SDS011;2289;48.316;15.174;2024-03-23T05:27:36;7.27;;;4.60;;
4553;SDS011;2289;48.316;15.174;2024-03-23T05:30:21;6.57;;;4.40;;
4553;SDS011;2289;48.316;15.174;2024-03-23T05:33:08;5.43;;;3.87;;
4553;SDS011;2289;48.316;15.174;2024-03-23T05:35:56;6.13;;;3.67;;
4553;SDS011;2289;48.316;15.174;2024-03-23T05:38:42;7.30;;;4.17;;
4553;SDS011;2289;48.316;15.174;2024-03-23T05:41:28;4.77;;;4.33;;
4553;SDS011;2289;48.316;15.174;2024-03-23T05:44:14;5.60;;;3.70;;
4553;SDS011;2289;48.316;15.174;2024-03-23T05:47:00;6.00;;;3.53;;
4553;SDS011;2289;48.316;15.174;2024-03-23T05:49:45;6.83;;;4.27;;
4553;SDS011;2289;48.316;15.174;2024-03-23T05:52:31;4.33;;;3.93;;
4553;SDS011;2289;48.316;15.174;2024-03-23T05:55:17;3.97;;;3.63;;
4553;SDS011;2289;48.316;15.174;2024-03-23T05:58:02;10.83;;;5.93;;
4553;SDS011;2289;48.316;15.174;2024-03-23T06:00:56;10.40;;;5.17;;
4553;SDS011;2289;48.316;15.174;2024-03-23T06:03:42;6.40;;;5.80;;
4553;SDS011;2289;48.316;15.174;2024-03-23T06:06:28;15.30;;;6.27;;
4553;SDS011;2289;48.316;15.174;2024-03-23T06:09:14;8.63;;;5.57;;
4553;SDS011;2289;48.316;15.174;2024-03-23T06:12:00;7.37;;;5.93;;
4553;SDS011;2289;48.316;15.174;2024-03-23T06:14:46;11.80;;;6.63;;
4553;SDS011;2289;48.316;15.174;2024-03-23T06:17:34;7.07;;;6.37;;
4553;SDS011;2289;48.316;15.174;2024-03-23T06:20:19;8.93;;;6.93;;
4553;SDS011;2289;48.316;15.174;2024-03-23T06:23:05;9.30;;;7.93;;
4553;SDS011;2289;48.316;15.174;2024-03-23T06:25:51;11.33;;;8.60;;
4553;SDS011;2289;48.316;15.174;2024-03-23T06:28:36;13.90;;;9.90;;
4553;SDS011;2289;48.316;15.174;2024-03-23T06:31:22;11.90;;;8.33;;
4553;SDS011;2289;48.316;15.174;2024-03-23T06:34:09;9.10;;;7.20;;
4553;SDS011;2289;48.316;15.174;2024-03-23T06:36:54;8.97;;;7.40;;
4553;SDS011;2289;48.316;15.174;2024-03-23T06:39:39;13.47;;;7.70;;
4553;SDS011;2289;48.316;15.174;2024-03-23T06:42:25;14.33;;;9.10;;
4553;SDS011;2289;48.316;15.174;2024-03-23T06:45:10;9.87;;;5.83;;
4553;SDS011;2289;48.316;15.174;2024-03-23T06:47:56;10.03;;;6.07;;
4553;SDS011;2289;48.316;15.174;2024-03-23T06:50:44;7.57;;;6.20;;
4553;SDS011;2289;48.316;15.174;2024-03-23T06:53:30;10.40;;;8.00;;
4553;SDS011;2289;48.316;15.174;2024-03-23T06:56:15;8.60;;;6.43;;
4553;SDS011;2289;48.316;15.174;2024-03-23T06:59:01;9.30;;;7.20;;
4553;SDS011;2289;48.316;15.174;2024-03-23T07:01:46;6.57;;;5.97;;
4553;SDS011;2289;48.316;15.174;2024-03-23T07:04:33;9.77;;;6.07;;
4553;SDS011;2289;48.316;15.174;2024-03-23T07:07:20;7.10;;;6.27;;
4553;SDS011;2289;48.316;15.174;2024-03-23T07:10:08;5.97;;;5.37;;
4553;SDS011;2289;48.316;15.174;2024-03-23T07:12:53;6.67;;;5.70;;
4553;SDS011;2289;48.316;15.174;2024-03-23T07:15:40;6.03;;;5.43;;
4553;SDS011;2289;48.316;15.174;2024-03-23T07:18:25;7.50;;;6.67;;
4553;SDS011;2289;48.316;15.174;2024-03-23T07:21:12;6.60;;;4.77;;
4553;SDS011;2289;48.316;15.174;2024-03-23T07:23:58;9.40;;;5.87;;
4553;SDS011;2289;48.316;15.174;2024-03-23T07:26:45;7.63;;;5.50;;
4553;SDS011;2289;48.316;15.174;2024-03-23T07:29:29;5.13;;;4.57;;
4553;SDS011;2289;48.316;15.174;2024-03-23T07:32:15;5.93;;;4.50;;
4553;SDS011;2289;48.316;15.174;2024-03-23T07:35:00;5.27;;;4.10;;
4553;SDS011;2289;48.316;15.174;2024-03-23T07:37:46;3.93;;;3.53;;
4553;SDS011;2289;48.316;15.174;2024-03-23T07:40:33;5.13;;;4.10;;
4553;SDS011;2289;48.316;15.174;2024-03-23T07:43:20;6.50;;;4.03;;
4553;SDS011;2289;48.316;15.174;2024-03-23T07:46:05;5.20;;;4.30;;
4553;SDS011;2289;48.316;15.174;2024-03-23T07:48:51;5.33;;;3.50;;
4553;SDS011;2289;48.316;15.174;2024-03-23T07:51:36;11.57;;;5.03;;
4553;SDS011;2289;48.316;15.174;2024-03-23T07:54:24;7.60;;;4.40;;
4553;SDS011;2289;48.316;15.174;2024-03-23T07:57:10;5.87;;;3.70;;
4553;SDS011;2289;48.316;15.174;2024-03-23T07:59:57;3.00;;;2.73;;
4553;SDS011;2289;48.316;15.174;2024-03-23T08:02:41;3.63;;;3.33;;
4553;SDS011;2289;48.316;15.174;2024-03-23T08:05:27;4.63;;;2.80;;
4553;SDS011;2289;48.316;15.174;2024-03-23T08:08:13;3.10;;;2.13;;
4553;SDS011;2289;48.316;15.174;2024-03-23T08:11:02;3.73;;;2.70;;
4553;SDS011;2289;48.316;15.174;2024-03-23T08:14:05;2.50;;;2.30;;
4553;SDS011;2289;48.316;15.174;2024-03-23T08:20:12;3.23;;;1.83;;
4553;SDS011;2289;48.316;15.174;2024-03-23T08:24:37;2.40;;;1.70;;
4553;SDS011;2289;48.316;15.174;2024-03-23T08:28:45;3.63;;;2.20;;
4553;SDS011;2289;48.316;15.174;2024-03-23T08:31:47;3.70;;;2.20;;
4553;SDS011;2289;48.316;15.174;2024-03-23T08:34:38;5.13;;;1.93;;
4553;SDS011;2289;48.316;15.174;2024-03-23T08:37:24;1.70;;;1.60;;
4553;SDS011;2289;48.316;15.174;2024-03-23T08:40:10;6.53;;;1.70;;
4553;SDS011;2289;48.316;15.174;2024-03-23T08:42:56;3.00;;;2.07;;
4553;SDS011;2289;48.316;15.174;2024-03-23T08:45:41;5.57;;;2.30;;
4553;SDS011;2289;48.316;15.174;2024-03-23T08:48:29;7.13;;;1.90;;
4553;SDS011;2289;48.316;15.174;2024-03-23T08:51:14;3.47;;;2.40;;
4553;SDS011;2289;48.316;15.174;2024-03-23T08:54:01;4.83;;;2.70;;
4553;SDS011;2289;48.316;15.174;2024-03-23T08:56:47;1.67;;;1.57;;
4553;SDS011;2289;48.316;15.174;2024-03-23T08:59:34;3.63;;;1.80;;
4553;SDS011;2289;48.316;15.174;2024-03-23T09:02:19;3.93;;;2.20;;
4553;SDS011;2289;48.316;15.174;2024-03-23T09:05:07;2.90;;;1.80;;
4553;SDS011;2289;48.316;15.174;2024-03-23T09:07:53;4.20;;;2.93;;
4553;SDS011;2289;48.316;15.174;2024-03-23T09:10:39;3.30;;;2.20;;
4553;SDS011;2289;48.316;15.174;2024-03-23T09:13:25;6.00;;;2.20;;
4553;SDS011;2289;48.316;15.174;2024-03-23T09:16:11;4.10;;;1.83;;
4553;SDS011;2289;48.316;15.174;2024-03-23T09:18:56;2.67;;;1.83;;
4553;SDS011;2289;48.316;15.174;2024-03-23T09:21:44;3.40;;;1.30;;
4553;SDS011;2289;48.316;15.174;2024-03-23T09:24:29;1.53;;;1.40;;
4553;SDS011;2289;48.316;15.174;2024-03-23T09:27:16;1.93;;;1.70;;
4553;SDS011;2289;48.316;15.174;2024-03-23T09:30:01;2.80;;;2.10;;
4553;SDS011;2289;48.316;15.174;2024-03-23T09:32:49;1.77;;;1.67;;
4553;SDS011;2289;48.316;15.174;2024-03-23T09:35:36;2.63;;;1.77;;
4553;SDS011;2289;48.316;15.174;2024-03-23T09:38:24;3.67;;;2.30;;
4553;SDS011;2289;48.316;15.174;2024-03-23T09:41:09;1.77;;;1.67;;
4553;SDS011;2289;48.316;15.174;2024-03-23T09:43:56;3.83;;;2.30;;
4553;SDS011;2289;48.316;15.174;2024-03-23T09:46:41;1.70;;;1.53;;
4553;SDS011;2289;48.316;15.174;2024-03-23T09:49:27;4.20;;;1.60;;
4553;SDS011;2289;48.316;15.174;2024-03-23T09:52:12;3.93;;;1.93;;
4553;SDS011;2289;48.316;15.174;2024-03-23T09:55:00;1.70;;;1.60;;
4553;SDS011;2289;48.316;15.174;2024-03-23T09:57:46;3.30;;;1.70;;
4553;SDS011;2289;48.316;15.174;2024-03-23T10:00:36;2.90;;;1.90;;
4553;SDS011;2289;48.316;15.174;2024-03-23T10:03:22;4.10;;;2.00;;
4553;SDS011;2289;48.316;15.174;2024-03-23T10:06:07;6.43;;;2.20;;
4553;SDS011;2289;48.316;15.174;2024-03-23T10:08:53;4.73;;;2.00;;
4553;SDS011;2289;48.316;15.174;2024-03-23T10:11:41;6.10;;;2.10;;
4553;SDS011;2289;48.316;15.174;2024-03-23T10:14:28;5.20;;;2.17;;
4553;SDS011;2289;48.316;15.174;2024-03-23T10:17:14;7.30;;;2.10;;
4553;SDS011;2289;48.316;15.174;2024-03-23T10:20:02;4.63;;;2.50;;
4553;SDS011;2289;48.316;15.174;2024-03-23T10:22:50;7.50;;;3.00;;
4553;SDS011;2289;48.316;15.174;2024-03-23T10:25:37;1.63;;;1.53;;
4553;SDS011;2289;48.316;15.174;2024-03-23T10:28:23;3.30;;;1.60;;
4553;SDS011;2289;48.316;15.174;2024-03-23T10:31:10;2.20;;;1.70;;
4553;SDS011;2289;48.316;15.174;2024-03-23T10:33:56;3.77;;;2.57;;
4553;SDS011;2289;48.316;15.174;2024-03-23T10:36:44;3.77;;;2.00;;
4553;SDS011;2289;48.316;15.174;2024-03-23T10:39:31;6.03;;;2.20;;
4553;SDS011;2289;48.316;15.174;2024-03-23T10:42:18;6.63;;;2.40;;
4553;SDS011;2289;48.316;15.174;2024-03-23T10:45:06;7.70;;;2.87;;
4553;SDS011;2289;48.316;15.174;2024-03-23T10:47:53;5.40;;;2.30;;
4553;SDS011;2289;48.316;15.174;2024-03-23T10:50:38;4.00;;;1.97;;
4553;SDS011;2289;48.316;15.174;2024-03-23T10:53:25;7.93;;;2.90;;
4553;SDS011;2289;48.316;15.174;2024-03-23T10:56:11;3.00;;;2.70;;
4553;SDS011;2289;48.316;15.174;2024-03-23T10:58:58;6.10;;;2.70;;
4553;SDS011;2289;48.316;15.174;2024-03-23T11:01:55;3.30;;;3.00;;
4553;SDS011;2289;48.316;15.174;2024-03-23T11:04:42;4.57;;;3.30;;
4553;SDS011;2289;48.316;15.174;2024-03-23T11:07:28;7.80;;;4.30;;
4553;SDS011;2289;48.316;15.174;2024-03-23T11:10:24;3.67;;;3.37;;
4553;SDS011;2289;48.316;15.174;2024-03-23T11:13:21;5.23;;;3.63;;
4553;SDS011;2289;48.316;15.174;2024-03-23T11:16:17;5.93;;;3.10;;
4553;SDS011;2289;48.316;15.174;2024-03-23T11:22:38;6.37;;;3.40;;
4553;SDS011;2289;48.316;15.174;2024-03-23T11:25:24;3.93;;;3.30;;
4553;SDS011;2289;48.316;15.174;2024-03-23T11:28:11;3.80;;;3.20;;
4553;SDS011;2289;48.316;15.174;2024-03-23T11:30:56;6.07;;;4.30;;
4553;SDS011;2289;48.316;15.174;2024-03-23T11:33:43;14.50;;;3.50;;
4553;SDS011;2289;48.316;15.174;2024-03-23T11:36:30;9.23;;;2.50;;
4553;SDS011;2289;48.316;15.174;2024-03-23T11:39:17;13.00;;;2.60;;
4553;SDS011;2289;48.316;15.174;2024-03-23T11:42:03;3.77;;;1.40;;
4553;SDS011;2289;48.316;15.174;2024-03-23T11:44:51;3.47;;;1.60;;
4553;SDS011;2289;48.316;15.174;2024-03-23T11:47:36;1.63;;;1.37;;
4553;SDS011;2289;48.316;15.174;2024-03-23T11:50:23;3.70;;;1.57;;
4553;SDS011;2289;48.316;15.174;2024-03-23T11:53:12;1.87;;;1.40;;
4553;SDS011;2289;48.316;15.174;2024-03-23T11:55:59;4.53;;;0.90;;
4553;SDS011;2289;48.316;15.174;2024-03-23T11:58:45;1.10;;;0.97;;
4553;SDS011;2289;48.316;15.174;2024-03-23T12:01:33;2.20;;;1.10;;
4553;SDS011;2289;48.316;15.174;2024-03-23T12:04:24;1.20;;;1.00;;
4553;SDS011;2289;48.316;15.174;2024-03-23T12:07:12;1.10;;;1.00;;
4553;SDS011;2289;48.316;15.174;2024-03-23T12:10:06;0.80;;;0.80;;
4553;SDS011;2289;48.316;15.174;2024-03-23T12:13:00;1.90;;;1.10;;
4553;SDS011;2289;48.316;15.174;2024-03-23T12:15:45;0.93;;;0.90;;
4553;SDS011;2289;48.316;15.174;2024-03-23T12:18:32;2.90;;;1.07;;
4553;SDS011;2289;48.316;15.174;2024-03-23T12:21:17;1.43;;;1.30;;
4553;SDS011;2289;48.316;15.174;2024-03-23T12:24:03;1.50;;;0.90;;
4553;SDS011;2289;48.316;15.174;2024-03-23T12:26:49;1.10;;;1.00;;
4553;SDS011;2289;48.316;15.174;2024-03-23T12:29:35;1.03;;;0.93;;
4553;SDS011;2289;48.316;15.174;2024-03-23T12:32:20;1.80;;;1.00;;
4553;SDS011;2289;48.316;15.174;2024-03-23T12:35:06;2.40;;;0.93;;
4553;SDS011;2289;48.316;15.174;2024-03-23T12:37:53;0.90;;;0.90;;
4553;SDS011;2289;48.316;15.174;2024-03-23T12:40:39;0.73;;;0.73;;
4553;SDS011;2289;48.316;15.174;2024-03-23T12:43:26;5.33;;;1.07;;
4553;SDS011;2289;48.316;15.174;2024-03-23T12:46:13;1.30;;;1.10;;
4553;SDS011;2289;48.316;15.174;2024-03-23T12:48:58;2.20;;;0.90;;
4553;SDS011;2289;48.316;15.174;2024-03-23T12:51:46;1.67;;;0.90;;
4553;SDS011;2289;48.316;15.174;2024-03-23T12:54:33;0.80;;;0.80;;
4553;SDS011;2289;48.316;15.174;2024-03-23T12:57:19;18.63;;;1.37;;
4553;SDS011;2289;48.316;15.174;2024-03-23T13:00:07;2.17;;;1.37;;
4553;SDS011;2289;48.316;15.174;2024-03-23T13:02:55;1.30;;;1.07;;
4553;SDS011;2289;48.316;15.174;2024-03-23T13:05:40;2.40;;;1.03;;
4553;SDS011;2289;48.316;15.174;2024-03-23T13:08:26;1.30;;;1.03;;
4553;SDS011;2289;48.316;15.174;2024-03-23T13:11:12;1.73;;;1.13;;
4553;SDS011;2289;48.316;15.174;2024-03-23T13:14:00;1.90;;;1.00;;
4553;SDS011;2289;48.316;15.174;2024-03-23T13:16:49;1.03;;;0.93;;
4553;SDS011;2289;48.316;15.174;2024-03-23T13:19:34;1.27;;;1.17;;
4553;SDS011;2289;48.316;15.174;2024-03-23T13:22:20;1.43;;;1.07;;
4553;SDS011;2289;48.316;15.174;2024-03-23T13:25:10;1.20;;;1.10;;
4553;SDS011;2289;48.316;15.174;2024-03-23T13:27:57;1.30;;;1.20;;
4553;SDS011;2289;48.316;15.174;2024-03-23T13:30:49;4.70;;;1.47;;
4553;SDS011;2289;48.316;15.174;2024-03-23T13:33:36;1.50;;;1.40;;
4553;SDS011;2289;48.316;15.174;2024-03-23T13:36:22;1.20;;;1.10;;
4553;SDS011;2289;48.316;15.174;2024-03-23T13:39:08;1.40;;;1.30;;
4553;SDS011;2289;48.316;15.174;2024-03-23T13:41:56;1.43;;;1.33;;
4553;SDS011;2289;48.316;15.174;2024-03-23T13:44:41;1.60;;;1.30;;
4553;SDS011;2289;48.316;15.174;2024-03-23T13:47:27;3.07;;;1.53;;
4553;SDS011;2289;48.316;15.174;2024-03-23T13:50:15;1.83;;;1.60;;
4553;SDS011;2289;48.316;15.174;2024-03-23T13:53:01;1.50;;;1.40;;
4553;SDS011;2289;48.316;15.174;2024-03-23T13:55:47;2.27;;;1.50;;
4553;SDS011;2289;48.316;15.174;2024-03-23T13:58:32;3.13;;;1.33;;
4553;SDS011;2289;48.316;15.174;2024-03-23T14:01:19;1.43;;;1.00;;
4553;SDS011;2289;48.316;15.174;2024-03-23T14:04:04;1.10;;;1.00;;
4553;SDS011;2289;48.316;15.174;2024-03-23T14:06:52;5.60;;;1.20;;
4553;SDS011;2289;48.316;15.174;2024-03-23T14:09:37;1.30;;;0.97;;
4553;SDS011;2289;48.316;15.174;2024-03-23T14:12:23;1.57;;;1.40;;
4553;SDS011;2289;48.316;15.174;2024-03-23T14:15:10;1.60;;;1.50;;
4553;SDS011;2289;48.316;15.174;2024-03-23T14:17:56;1.13;;;1.03;;
4553;SDS011;2289;48.316;15.174;2024-03-23T14:20:43;2.30;;;1.30;;
4553;SDS011;2289;48.316;15.174;2024-03-23T14:23:30;1.60;;;1.50;;
4553;SDS011;2289;48.316;15.174;2024-03-23T14:26:18;1.30;;;1.20;;
4553;SDS011;2289;48.316;15.174;2024-03-23T14:29:03;2.07;;;1.00;;
4553;SDS011;2289;48.316;15.174;2024-03-23T14:31:49;1.30;;;1.20;;
4553;SDS011;2289;48.316;15.174;2024-03-23T14:34:34;1.50;;;1.17;;
4553;SDS011;2289;48.316;15.174;2024-03-23T14:37:21;1.37;;;0.90;;
4553;SDS011;2289;48.316;15.174;2024-03-23T14:40:09;1.07;;;1.07;;
4553;SDS011;2289;48.316;15.174;2024-03-23T14:42:57;0.80;;;0.80;;
4553;SDS011;2289;48.316;15.174;2024-03-23T14:45:48;0.80;;;0.80;;
4553;SDS011;2289;48.316;15.174;2024-03-23T14:48:50;1.60;;;1.10;;
4553;SDS011;2289;48.316;15.174;2024-03-23T14:51:38;0.83;;;0.83;;
4553;SDS011;2289;48.316;15.174;2024-03-23T14:54:24;1.20;;;1.10;;
4553;SDS011;2289;48.316;15.174;2024-03-23T14:57:13;0.73;;;0.73;;
4553;SDS011;2289;48.316;15.174;2024-03-23T14:59:58;0.70;;;0.70;;
4553;SDS011;2289;48.316;15.174;2024-03-23T15:02:44;1.23;;;1.00;;
4553;SDS011;2289;48.316;15.174;2024-03-23T15:05:30;1.70;;;1.40;;
4553;SDS011;2289;48.316;15.174;2024-03-23T15:08:16;1.20;;;0.93;;
4553;SDS011;2289;48.316;15.174;2024-03-23T15:11:02;1.30;;;1.03;;
4553;SDS011;2289;48.316;15.174;2024-03-23T15:13:51;1.53;;;1.30;;
4553;SDS011;2289;48.316;15.174;2024-03-23T15:16:37;1.17;;;1.07;;
4553;SDS011;2289;48.316;15.174;2024-03-23T15:19:22;1.97;;;1.40;;
4553;SDS011;2289;48.316;15.174;2024-03-23T15:22:08;2.00;;;1.23;;
4553;SDS011;2289;48.316;15.174;2024-03-23T15:24:55;1.57;;;1.47;;
4553;SDS011;2289;48.316;15.174;2024-03-23T15:27:40;3.17;;;1.67;;
4553;SDS011;2289;48.316;15.174;2024-03-23T15:30:31;0.90;;;0.90;;
4553;SDS011;2289;48.316;15.174;2024-03-23T15:33:19;1.27;;;1.20;;
4553;SDS011;2289;48.316;15.174;2024-03-23T15:36:06;1.73;;;1.30;;
4553;SDS011;2289;48.316;15.174;2024-03-23T15:38:51;4.43;;;1.70;;
4553;SDS011;2289;48.316;15.174;2024-03-23T15:41:39;2.00;;;1.80;;
4553;SDS011;2289;48.316;15.174;2024-03-23T15:44:24;1.73;;;1.30;;
4553;SDS011;2289;48.316;15.174;2024-03-23T15:47:12;1.83;;;1.60;;
4553;SDS011;2289;48.316;15.174;2024-03-23T15:49:57;2.10;;;2.00;;
4553;SDS011;2289;48.316;15.174;2024-03-23T15:52:43;1.87;;;1.77;;
4553;SDS011;2289;48.316;15.174;2024-03-23T15:55:28;1.97;;;1.87;;
4553;SDS011;2289;48.316;15.174;2024-03-23T15:58:15;2.80;;;2.50;;
4553;SDS011;2289;48.316;15.174;2024-03-23T16:01:03;2.80;;;2.60;;
4553;SDS011;2289;48.316;15.174;2024-03-23T16:03:56;3.37;;;3.17;;
4553;SDS011;2289;48.316;15.174;2024-03-23T16:06:42;3.50;;;3.20;;
4553;SDS011;2289;48.316;15.174;2024-03-23T16:09:30;3.30;;;3.00;;
4553;SDS011;2289;48.316;15.174;2024-03-23T16:12:15;2.97;;;2.77;;
4553;SDS011;2289;48.316;15.174;2024-03-23T16:15:03;2.70;;;2.50;;
4553;SDS011;2289;48.316;15.174;2024-03-23T16:17:52;3.03;;;2.83;;
4553;SDS011;2289;48.316;15.174;2024-03-23T16:20:51;8.63;;;4.87;;
4553;SDS011;2289;48.316;15.174;2024-03-23T16:23:39;4.77;;;4.00;;
4553;SDS011;2289;48.316;15.174;2024-03-23T16:26:26;6.00;;;4.23;;
4553;SDS011;2289;48.316;15.174;2024-03-23T16:29:11;3.80;;;3.10;;
4553;SDS011;2289;48.316;15.174;2024-03-23T16:32:00;2.40;;;2.20;;
4553;SDS011;2289;48.316;15.174;2024-03-23T16:34:45;4.60;;;2.13;;
4553;SDS011;2289;48.316;15.174;2024-03-23T16:37:34;2.33;;;2.13;;
4553;SDS011;2289;48.316;15.174;2024-03-23T16:40:20;4.37;;;2.70;;
4553;SDS011;2289;48.316;15.174;2024-03-23T16:43:09;2.80;;;2.60;;
4553;SDS011;2289;48.316;15.174;2024-03-23T16:45:55;1.70;;;1.60;;
4553;SDS011;2289;48.316;15.174;2024-03-23T16:48:44;2.57;;;2.10;;
4553;SDS011;2289;48.316;15.174;2024-03-23T16:51:30;2.40;;;2.20;;
4553;SDS011;2289;48.316;15.174;2024-03-23T16:54:26;3.17;;;2.73;;
4553;SDS011;2289;48.316;15.174;2024-03-23T16:57:13;5.10;;;3.33;;
4553;SDS011;2289;48.316;15.174;2024-03-23T17:00:00;4.00;;;3.57;;
4553;SDS011;2289;48.316;15.174;2024-03-23T17:02:45;4.43;;;2.97;;
4553;SDS011;2289;48.316;15.174;2024-03-23T17:05:38;2.93;;;2.73;;
4553;SDS011;2289;48.316;15.174;2024-03-23T17:08:24;7.37;;;3.60;;
4553;SDS011;2289;48.316;15.174;2024-03-23T17:11:10;3.40;;;3.20;;
4553;SDS011;2289;48.316;15.174;2024-03-23T17:13:56;4.13;;;3.33;;
4553;SDS011;2289;48.316;15.174;2024-03-23T17:16:41;3.97;;;2.80;;
4553;SDS011;2289;48.316;15.174;2024-03-23T17:19:29;3.90;;;3.30;;
4553;SDS011;2289;48.316;15.174;2024-03-23T17:22:14;4.43;;;4.03;;
4553;SDS011;2289;48.316;15.174;2024-03-23T17:25:00;4.07;;;3.67;;
4553;SDS011;2289;48.316;15.174;2024-03-23T17:27:46;3.90;;;3.60;;
4553;SDS011;2289;48.316;15.174;2024-03-23T17:30:32;3.87;;;3.47;;
4553;SDS011;2289;48.316;15.174;2024-03-23T17:33:18;6.03;;;4.30;;
4553;SDS011;2289;48.316;15.174;2024-03-23T17:36:06;6.17;;;5.00;;
4553;SDS011;2289;48.316;15.174;2024-03-23T17:38:53;3.57;;;3.10;;
4553;SDS011;2289;48.316;15.174;2024-03-23T17:41:39;3.67;;;3.37;;
4553;SDS011;2289;48.316;15.174;2024-03-23T17:44:26;2.50;;;2.30;;
4553;SDS011;2289;48.316;15.174;2024-03-23T17:47:13;3.03;;;2.73;;
4553;SDS011;2289;48.316;15.174;2024-03-23T17:49:59;2.87;;;2.67;;
4553;SDS011;2289;48.316;15.174;2024-03-23T17:52:45;2.83;;;2.10;;
4553;SDS011;2289;48.316;15.174;2024-03-23T17:55:30;2.83;;;2.60;;
4553;SDS011;2289;48.316;15.174;2024-03-23T17:58:17;2.50;;;2.30;;
4553;SDS011;2289;48.316;15.174;2024-03-23T18:01:07;2.77;;;2.57;;
4553;SDS011;2289;48.316;15.174;2024-03-23T18:03:53;4.00;;;2.70;;
4553;SDS011;2289;48.316;15.174;2024-03-23T18:06:38;2.80;;;2.60;;